ENAN/ANX METAR and TAF weather

Enter ICAO airport designator
Station Type Date Time Source
ENAN METAR 2020/03/31 23:20 UTC NOAA

ENAN 312320Z AUTO 02024KT 9999 FEW031/// M00/M05 Q0998


Station Type Date Time Source
ENAN Decoded METAR 2020/03/31 23:20 UTC NOAA

Andoya, Norway (ENAN) 69-18N 016-09E 14M
Mar 31, 2020 - 07:20 PM EDT / 2020.03.31 2320 UTC
Wind: from the NNE (020 degrees) at 28 MPH (24 KT):0
Visibility: greater than 7 mile(s):0
Sky conditions: mostly clear
Temperature: 32 F (0 C)
Windchill: 17 F (-8 C):1
Dew Point: 23 F (-5 C)
Relative Humidity: 69%
Pressure (altimeter): 29.47 in. Hg (0998 hPa)
ob: ENAN 312320Z AUTO 02024KT 9999 FEW031/// M00/M05 Q0998
cycle: 23

Station Type Date Time Source
ENAN TAF 2020/03/31 18:57 UTC NOAA

TAF TAF ENAN 311700Z 3118/0118 02025KT 9999 -SHRA FEW012CB BKN030
TEMPO 3118/0118 1000 SHSN VV008
TEMPO 3118/3122 36032G45KT
TEMPO 3122/0104 36025G35KT
BECMG 0106/0109 10008KT

Example: see airport list